Time;durP1;ratioP1;P1;durP2;ratioP2;P2;SDS_P1;SDS_P2;PMS_P1;PMS_P2;Temp;Humidity;BMP_temperature;BMP_pressure;BME280_temperature;BME280_humidity;BME280_pressure;Samples;Min_cycle;Max_cycle;Signal;HPM_P1;HPM_P2
2023/04/29 00:01:38;;;;;;;13.23;11.40;;;15.60;99.90;;;;;;5073585;28;20446;-74
2023/04/29 00:04:04;;;;;;;13.80;10.50;;;15.60;99.90;;;;;;5074348;28;20912;-74
2023/04/29 00:06:30;;;;;;;12.03;10.73;;;15.60;99.90;;;;;;5039528;28;20534;-74
2023/04/29 00:08:56;;;;;;;16.43;12.90;;;15.60;99.90;;;;;;5056614;28;20447;-74
2023/04/29 00:11:21;;;;;;;17.07;13.20;;;15.60;99.90;;;;;;5039036;28;20205;-74
2023/04/29 00:13:47;;;;;;;19.93;14.50;;;15.60;99.90;;;;;;5066172;28;20556;-75
2023/04/29 00:16:13;;;;;;;18.90;14.80;;;15.60;99.90;;;;;;5022791;28;20451;-74
2023/04/29 00:18:40;;;;;;;23.53;16.90;;;15.50;99.90;;;;;;5039480;28;20488;-75
2023/04/29 00:21:08;;;;;;;17.13;13.60;;;15.50;99.90;;;;;;5039228;28;20423;-74
2023/04/29 00:23:34;;;;;;;24.23;17.80;;;15.50;99.90;;;;;;5039073;28;20813;-74
2023/04/29 00:26:04;;;;;;;19.70;16.30;;;15.50;99.90;;;;;;5039813;28;20801;-74
2023/04/29 00:28:30;;;;;;;20.33;14.57;;;15.50;99.90;;;;;;5038919;28;20842;-75
2023/04/29 00:30:56;;;;;;;22.03;16.30;;;15.50;99.90;;;;;;5039004;28;20983;-74
2023/04/29 00:33:25;;;;;;;21.73;16.60;;;15.50;99.90;;;;;;5055781;28;20891;-74
2023/04/29 00:35:51;;;;;;;25.13;18.43;;;15.40;99.90;;;;;;5073160;28;20426;-74
2023/04/29 00:38:17;;;;;;;23.40;16.90;;;15.50;99.90;;;;;;5038942;28;20429;-74
2023/04/29 00:40:46;;;;;;;24.33;18.10;;;15.40;99.90;;;;;;5022332;28;20480;-75
2023/04/29 00:43:12;;;;;;;25.00;18.67;;;15.40;99.90;;;;;;5088702;28;20464;-75
2023/04/29 00:45:44;;;;;;;29.47;21.30;;;15.40;99.90;;;;;;5038748;28;21266;-74
2023/04/29 00:48:10;;;;;;;28.33;19.83;;;15.40;99.90;;;;;;5071722;28;20488;-74
2023/04/29 00:50:36;;;;;;;31.10;20.33;;;15.40;99.90;;;;;;5022467;28;21074;-75
2023/04/29 00:53:04;;;;;;;27.23;19.30;;;15.40;99.90;;;;;;5055255;28;20819;-74
2023/04/29 00:55:32;;;;;;;31.33;21.93;;;15.40;99.90;;;;;;5072947;28;20408;-74
2023/04/29 00:58:01;;;;;;;26.87;18.90;;;15.40;99.90;;;;;;5055175;28;20406;-74
2023/04/29 01:00:27;;;;;;;33.07;21.63;;;15.30;99.90;;;;;;5038504;28;20531;-75
2023/04/29 01:02:55;;;;;;;29.90;21.23;;;15.30;99.90;;;;;;5038017;28;20444;-74
2023/04/29 01:05:24;;;;;;;29.40;21.33;;;15.30;99.90;;;;;;5071949;28;20398;-74
2023/04/29 01:08:18;;;;;;;32.00;21.90;;;15.40;99.90;;;;;;5054560;28;20425;-74
2023/04/29 01:10:54;;;;;;;29.67;22.10;;;15.30;99.90;;;;;;5071801;28;20472;-75
2023/04/29 01:13:34;;;;;;;40.33;24.27;;;15.30;99.90;;;;;;5054438;28;20445;-74
2023/04/29 01:16:12;;;;;;;36.23;23.63;;;15.30;99.90;;;;;;5038489;28;20405;-74
2023/04/29 01:18:48;;;;;;;37.20;24.63;;;15.30;99.90;;;;;;5038660;28;20447;-74
2023/04/29 01:21:20;;;;;;;30.43;21.97;;;15.30;99.90;;;;;;5054726;28;20931;-75
2023/04/29 01:23:54;;;;;;;34.70;24.40;;;15.30;99.90;;;;;;5054756;28;20847;-75
2023/04/29 01:26:23;;;;;;;37.27;24.63;;;15.20;99.90;;;;;;5038113;28;20457;-75
2023/04/29 01:29:47;;;;;;;36.67;23.93;;;15.30;99.90;;;;;;5054512;28;20561;-75
2023/04/29 01:32:17;;;;;;;35.07;24.40;;;15.20;99.90;;;;;;5004524;28;20516;-74
2023/04/29 01:34:58;;;;;;;36.90;24.10;;;15.20;99.90;;;;;;5034795;28;20440;-75
2023/04/29 01:37:52;;;;;;;33.67;23.67;;;15.20;99.90;;;;;;5048841;28;20441;-74
2023/04/29 01:40:29;;;;;;;39.00;25.47;;;15.20;99.90;;;;;;5038408;28;20410;-74
2023/04/29 01:43:21;;;;;;;36.60;25.23;;;15.20;99.90;;;;;;5053984;28;20449;-76
2023/04/29 01:45:52;;;;;;;36.80;24.27;;;15.20;99.90;;;;;;5037686;28;20435;-75
2023/04/29 01:48:21;;;;;;;41.60;26.17;;;15.10;99.90;;;;;;5037930;28;20499;-74
2023/04/29 01:50:47;;;;;;;45.40;27.03;;;15.10;99.90;;;;;;5037412;28;20465;-75
2023/04/29 01:53:15;;;;;;;40.07;25.20;;;15.10;99.90;;;;;;5037763;28;20434;-74
2023/04/29 01:55:45;;;;;;;41.17;25.30;;;15.10;99.90;;;;;;5037916;28;20430;-74
2023/04/29 01:58:17;;;;;;;44.43;27.30;;;15.10;99.90;;;;;;5071670;28;20412;-75
2023/04/29 02:01:03;;;;;;;45.17;25.53;;;15.10;99.90;;;;;;5042641;28;20425;-74
2023/04/29 02:03:32;;;;;;;38.70;25.13;;;15.10;99.90;;;;;;5037711;28;20460;-74
2023/04/29 02:06:00;;;;;;;38.23;24.53;;;15.10;99.90;;;;;;5071159;28;20423;-74
2023/04/29 02:08:31;;;;;;;39.30;24.00;;;15.10;99.90;;;;;;5071638;28;20414;-74
2023/04/29 02:10:59;;;;;;;38.73;23.10;;;15.10;99.90;;;;;;5053683;28;20514;-75
2023/04/29 02:13:34;;;;;;;42.17;25.53;;;15.10;99.90;;;;;;5054259;28;21052;-74
2023/04/29 02:16:12;;;;;;;40.63;25.17;;;15.10;99.90;;;;;;5053903;28;20418;-74
2023/04/29 02:18:45;;;;;;;40.73;25.67;;;15.10;99.90;;;;;;5054023;28;20406;-75
2023/04/29 02:21:11;;;;;;;38.13;23.20;;;15.10;99.90;;;;;;5070277;28;20901;-74
2023/04/29 02:23:37;;;;;;;42.30;25.30;;;15.10;99.90;;;;;;5054033;28;20420;-74
2023/04/29 02:26:08;;;;;;;38.40;23.50;;;15.10;99.90;;;;;;5053810;28;20214;-75
2023/04/29 02:28:34;;;;;;;36.67;22.90;;;15.10;99.90;;;;;;5053599;28;20553;-74
2023/04/29 02:31:00;;;;;;;38.37;25.43;;;15.10;99.90;;;;;;5036803;28;20928;-75
2023/04/29 02:33:26;;;;;;;39.47;23.33;;;15.00;99.90;;;;;;5037344;28;20434;-75
2023/04/29 02:35:53;;;;;;;38.87;24.27;;;15.00;99.90;;;;;;5037250;28;20464;-74
2023/04/29 02:38:21;;;;;;;34.57;22.70;;;15.00;99.90;;;;;;5053464;28;20441;-74
2023/04/29 02:40:49;;;;;;;35.77;23.50;;;15.00;99.90;;;;;;5021370;28;20430;-74
2023/04/29 02:43:15;;;;;;;35.77;22.20;;;15.00;99.90;;;;;;5037111;28;20441;-75
2023/04/29 02:45:41;;;;;;;38.07;23.87;;;15.00;99.90;;;;;;5053717;28;20418;-74
2023/04/29 02:48:10;;;;;;;40.23;22.67;;;15.00;99.90;;;;;;5036936;28;20465;-75
2023/04/29 02:50:35;;;;;;;37.93;22.37;;;15.00;99.90;;;;;;5037612;28;20427;-75
2023/04/29 02:53:05;;;;;;;35.40;22.37;;;15.00;99.90;;;;;;5036903;28;20785;-74
2023/04/29 02:55:33;;;;;;;34.03;20.67;;;15.00;99.90;;;;;;5037480;28;20936;-74
2023/04/29 02:58:07;;;;;;;36.97;23.30;;;15.00;99.90;;;;;;5037928;28;20448;-74
2023/04/29 03:00:33;;;;;;;33.17;20.63;;;15.00;99.90;;;;;;5037212;28;20839;-75
2023/04/29 03:03:00;;;;;;;34.13;22.10;;;15.00;99.90;;;;;;5036668;28;20519;-74
2023/04/29 03:05:26;;;;;;;34.57;21.97;;;15.00;99.90;;;;;;5053676;28;20455;-74
2023/04/29 03:07:53;;;;;;;38.10;23.40;;;15.00;99.90;;;;;;5053007;28;20478;-74
2023/04/29 03:10:21;;;;;;;37.40;22.13;;;14.90;99.90;;;;;;5053908;28;20418;-75
2023/04/29 03:12:50;;;;;;;32.00;20.60;;;14.90;99.90;;;;;;5043963;28;20465;-75
2023/04/29 03:15:16;;;;;;;34.20;22.93;;;14.90;99.90;;;;;;5070691;28;20529;-75
2023/04/29 03:17:45;;;;;;;37.40;21.07;;;14.90;99.90;;;;;;5057141;28;20400;-75
2023/04/29 03:20:12;;;;;;;34.00;22.23;;;14.90;99.90;;;;;;5040678;28;20567;-75
2023/04/29 03:22:38;;;;;;;39.00;23.83;;;14.90;99.90;;;;;;5040176;28;20461;-74
2023/04/29 03:25:05;;;;;;;33.17;21.40;;;14.90;99.90;;;;;;5056559;28;20956;-75
2023/04/29 03:27:31;;;;;;;38.07;22.40;;;14.90;99.90;;;;;;5040000;28;20425;-74
2023/04/29 03:29:57;;;;;;;38.43;23.20;;;14.90;99.90;;;;;;5039975;28;20439;-74
2023/04/29 03:32:23;;;;;;;35.60;22.30;;;14.90;99.90;;;;;;5023384;28;20922;-74
2023/04/29 03:34:50;;;;;;;35.47;22.87;;;14.90;99.90;;;;;;5056813;28;20401;-74
2023/04/29 03:37:27;;;;;;;33.37;21.63;;;14.90;99.90;;;;;;5041668;28;20418;-74
2023/04/29 03:40:06;;;;;;;34.73;22.70;;;14.80;99.90;;;;;;5056252;28;20417;-75
2023/04/29 03:42:33;;;;;;;34.13;23.00;;;14.80;99.90;;;;;;5056049;28;20444;-74
2023/04/29 03:44:58;;;;;;;33.07;20.97;;;14.80;99.90;;;;;;5056549;28;20452;-75
2023/04/29 03:47:25;;;;;;;28.93;19.40;;;14.80;99.90;;;;;;5056880;28;20426;-75
2023/04/29 03:49:53;;;;;;;28.73;19.70;;;14.80;99.90;;;;;;5073057;28;20424;-74
2023/04/29 03:52:19;;;;;;;28.87;18.80;;;14.80;99.90;;;;;;5039330;28;21067;-75
2023/04/29 03:54:48;;;;;;;30.27;18.87;;;14.80;99.90;;;;;;5023543;28;20456;-74
2023/04/29 03:57:19;;;;;;;28.83;19.00;;;14.80;99.90;;;;;;5040333;28;20437;-74
2023/04/29 03:59:49;;;;;;;28.03;18.47;;;14.80;99.90;;;;;;5055614;28;20810;-75
2023/04/29 04:02:18;;;;;;;25.83;18.27;;;14.80;99.90;;;;;;5056375;28;20448;-75
2023/04/29 04:04:44;;;;;;;25.70;16.33;;;14.80;99.90;;;;;;5089442;28;20461;-74
2023/04/29 04:07:12;;;;;;;26.23;18.53;;;14.80;99.90;;;;;;5056001;28;20416;-74
2023/04/29 04:09:58;;;;;;;26.37;16.30;;;14.70;99.90;;;;;;5073517;28;20421;-75
2023/04/29 04:12:24;;;;;;;25.07;17.07;;;14.70;99.90;;;;;;5056018;28;20465;-74
2023/04/29 04:14:55;;;;;;;28.00;18.50;;;14.70;99.90;;;;;;5056167;28;20944;-74
2023/04/29 04:17:21;;;;;;;22.90;15.67;;;14.70;99.90;;;;;;5055973;28;20477;-75
2023/04/29 04:19:51;;;;;;;26.23;16.20;;;14.70;99.90;;;;;;5055663;28;20831;-74
2023/04/29 04:22:19;;;;;;;20.17;14.87;;;14.70;99.90;;;;;;5040115;28;20447;-74
2023/04/29 04:25:03;;;;;;;21.60;15.33;;;14.70;99.90;;;;;;5034795;28;20426;-74
2023/04/29 04:27:29;;;;;;;18.80;13.80;;;14.70;99.90;;;;;;5052784;28;20759;-74
2023/04/29 04:30:00;;;;;;;23.07;15.07;;;14.70;99.90;;;;;;5055416;28;20474;-75
2023/04/29 04:32:30;;;;;;;23.03;15.53;;;14.70;99.90;;;;;;5055442;28;20461;-75
2023/04/29 04:34:56;;;;;;;23.33;15.73;;;14.70;99.90;;;;;;5073296;28;20796;-74
2023/04/29 04:37:25;;;;;;;21.70;14.80;;;14.70;99.90;;;;;;5054689;28;20432;-76
2023/04/29 04:39:58;;;;;;;17.27;12.77;;;14.70;99.90;;;;;;5031509;28;20946;-74
2023/04/29 04:42:29;;;;;;;19.33;14.07;;;14.60;99.90;;;;;;5038409;28;20452;-74
2023/04/29 04:44:57;;;;;;;19.67;13.30;;;14.60;99.90;;;;;;5022474;28;20506;-75
2023/04/29 04:47:46;;;;;;;20.57;13.47;;;14.60;99.90;;;;;;5055340;28;20843;-74
2023/04/29 04:50:22;;;;;;;19.93;12.80;;;14.60;99.90;;;;;;5040021;28;20408;-74
2023/04/29 04:52:49;;;;;;;17.07;13.03;;;14.60;99.90;;;;;;5038205;28;20464;-75
2023/04/29 04:55:37;;;;;;;18.03;13.17;;;14.60;99.90;;;;;;5038680;28;20441;-74
2023/04/29 04:58:05;;;;;;;16.77;12.30;;;14.60;99.90;;;;;;5088319;28;20429;-74
2023/04/29 05:00:34;;;;;;;19.13;13.10;;;14.60;99.90;;;;;;5055857;28;20993;-74
2023/04/29 05:03:01;;;;;;;15.77;12.60;;;14.60;99.90;;;;;;5038273;28;20446;-72
2023/04/29 05:05:33;;;;;;;18.33;13.93;;;14.60;99.90;;;;;;5072819;28;20404;-74
2023/04/29 05:08:01;;;;;;;18.47;13.00;;;14.60;99.90;;;;;;5038168;28;20843;-72
2023/04/29 05:10:36;;;;;;;19.37;12.70;;;14.60;99.90;;;;;;5055057;28;20394;-70
2023/04/29 05:13:04;;;;;;;16.53;12.50;;;14.50;99.90;;;;;;5054524;28;20442;-72
2023/04/29 05:15:34;;;;;;;18.53;12.03;;;14.50;99.90;;;;;;5055096;28;20429;-71
2023/04/29 05:18:04;;;;;;;15.87;12.03;;;14.50;99.90;;;;;;5054353;28;20472;-71
2023/04/29 05:20:30;;;;;;;22.20;13.27;;;14.60;99.90;;;;;;5054783;28;20398;-70
2023/04/29 05:22:56;;;;;;;18.33;13.40;;;14.50;99.90;;;;;;5052880;28;20476;-71
2023/04/29 05:25:24;;;;;;;18.53;13.90;;;14.50;99.90;;;;;;5006571;28;20453;-71
2023/04/29 05:27:54;;;;;;;18.63;13.77;;;14.50;99.90;;;;;;5020952;28;20981;-72
2023/04/29 05:30:26;;;;;;;21.47;15.60;;;14.50;99.90;;;;;;5019443;28;20448;-71
2023/04/29 05:32:52;;;;;;;32.23;23.30;;;14.50;99.90;;;;;;5052919;28;20472;-71
2023/04/29 05:35:20;;;;;;;19.50;14.27;;;14.50;99.90;;;;;;5049386;28;20460;-71
2023/04/29 05:37:49;;;;;;;20.90;15.00;;;14.50;99.90;;;;;;5050917;28;20775;-71
2023/04/29 05:40:38;;;;;;;17.73;13.50;;;14.50;99.90;;;;;;5061470;28;20472;-71
2023/04/29 05:43:27;;;;;;;19.47;14.03;;;14.50;99.90;;;;;;5069547;28;20509;-71
2023/04/29 05:45:57;;;;;;;19.37;13.63;;;14.50;99.90;;;;;;5034970;28;20421;-71
2023/04/29 05:48:25;;;;;;;20.57;13.83;;;14.50;99.90;;;;;;5035374;28;21058;-71
2023/04/29 05:50:53;;;;;;;16.73;12.23;;;14.50;99.90;;;;;;5019379;28;20483;-71
2023/04/29 05:53:20;;;;;;;17.23;12.23;;;14.50;99.90;;;;;;5032994;28;20465;-71
2023/04/29 05:55:50;;;;;;;19.53;13.97;;;14.40;99.90;;;;;;5035658;28;20414;-71
2023/04/29 05:58:16;;;;;;;18.93;12.80;;;14.40;99.90;;;;;;5051319;28;20440;-71
2023/04/29 06:00:42;;;;;;;17.63;13.40;;;14.40;99.90;;;;;;5035712;28;20476;-70
2023/04/29 06:03:21;;;;;;;18.70;13.13;;;14.40;99.90;;;;;;5053176;28;20443;-70
2023/04/29 06:05:57;;;;;;;18.83;14.90;;;14.40;99.90;;;;;;5056742;28;20449;-70
2023/04/29 06:08:46;;;;;;;18.30;12.30;;;14.40;99.90;;;;;;5051797;28;20524;-70
2023/04/29 06:11:21;;;;;;;20.60;13.07;;;14.40;99.90;;;;;;5034395;28;20476;-71
2023/04/29 06:13:52;;;;;;;16.43;11.80;;;14.40;99.90;;;;;;5051905;28;20448;-70
2023/04/29 06:16:25;;;;;;;15.20;12.10;;;14.40;99.90;;;;;;5052016;28;20439;-70
2023/04/29 06:18:53;;;;;;;16.80;11.77;;;14.40;99.90;;;;;;5067323;28;20506;-71
2023/04/29 06:21:19;;;;;;;14.67;10.97;;;14.40;99.90;;;;;;5051814;28;20803;-71
2023/04/29 06:23:45;;;;;;;14.87;11.17;;;14.40;99.90;;;;;;5051475;28;20456;-70
2023/04/29 06:26:23;;;;;;;17.43;12.33;;;14.40;99.90;;;;;;5051952;28;20429;-71
2023/04/29 06:28:53;;;;;;;17.07;11.97;;;14.40;99.90;;;;;;5034160;28;20435;-71
2023/04/29 06:31:19;;;;;;;18.87;11.60;;;14.40;99.90;;;;;;5018568;28;20488;-70
2023/04/29 06:33:48;;;;;;;16.47;11.00;;;14.30;99.90;;;;;;5051891;28;20454;-71
2023/04/29 06:36:15;;;;;;;13.00;10.87;;;14.30;99.90;;;;;;5034849;28;20452;-72
2023/04/29 06:38:45;;;;;;;14.47;11.20;;;14.40;99.90;;;;;;5051180;28;20409;-71
2023/04/29 06:41:43;;;;;;;14.07;11.30;;;14.30;99.90;;;;;;5051267;28;20444;-71
2023/04/29 06:44:37;;;;;;;14.43;11.13;;;14.30;99.90;;;;;;5035575;28;20894;-72
2023/04/29 06:47:33;;;;;;;16.00;11.23;;;14.30;99.90;;;;;;5001260;28;20976;-72
2023/04/29 06:50:10;;;;;;;14.50;11.17;;;14.30;99.90;;;;;;5056498;28;20414;-72
2023/04/29 06:52:38;;;;;;;14.17;11.60;;;14.30;99.90;;;;;;5036159;28;20587;-71
2023/04/29 06:55:10;;;;;;;15.80;11.97;;;14.30;99.90;;;;;;5055200;28;20435;-71
2023/04/29 06:57:36;;;;;;;16.00;10.90;;;14.30;99.90;;;;;;5022037;28;20410;-72
2023/04/29 07:00:05;;;;;;;13.10;10.20;;;14.30;99.90;;;;;;5054463;28;20444;-72
2023/04/29 07:02:31;;;;;;;12.50;9.43;;;14.30;99.90;;;;;;5072678;28;20982;-71
2023/04/29 07:04:58;;;;;;;13.30;10.20;;;14.30;99.90;;;;;;5053492;28;20418;-72
2023/04/29 07:07:24;;;;;;;13.60;10.10;;;14.30;99.90;;;;;;5053190;28;21084;-72
2023/04/29 07:09:53;;;;;;;15.10;10.50;;;14.30;99.90;;;;;;5053481;28;20460;-71
2023/04/29 07:12:19;;;;;;;14.60;10.40;;;14.30;99.90;;;;;;5053881;28;20883;-72
2023/04/29 07:14:46;;;;;;;14.47;11.07;;;14.30;99.90;;;;;;5054630;28;20474;-70
2023/04/29 07:17:12;;;;;;;12.70;9.80;;;14.30;99.90;;;;;;5038402;28;20445;-72
2023/04/29 07:19:38;;;;;;;14.60;11.60;;;14.30;99.90;;;;;;5038327;28;20468;-72
2023/04/29 07:22:04;;;;;;;11.03;9.90;;;14.30;99.90;;;;;;5072074;28;20465;-72
2023/04/29 07:24:30;;;;;;;12.10;9.83;;;14.30;99.90;;;;;;5038560;28;20523;-72
2023/04/29 07:26:56;;;;;;;12.53;10.10;;;14.30;99.90;;;;;;5037788;28;20428;-72
2023/04/29 07:29:22;;;;;;;13.67;10.00;;;14.20;99.90;;;;;;5054593;28;20440;-72
2023/04/29 07:31:48;;;;;;;12.10;9.67;;;14.20;99.90;;;;;;5054479;28;20465;-72
2023/04/29 07:34:15;;;;;;;12.70;9.70;;;14.30;99.90;;;;;;5053615;28;20434;-72
2023/04/29 07:36:40;;;;;;;10.20;8.80;;;14.20;99.90;;;;;;5037704;28;20569;-72
2023/04/29 07:39:07;;;;;;;12.63;10.30;;;14.20;99.90;;;;;;5054321;28;20516;-72
2023/04/29 07:41:33;;;;;;;15.10;9.80;;;14.30;99.90;;;;;;5070804;28;20437;-73
2023/04/29 07:43:59;;;;;;;11.83;9.90;;;14.20;99.90;;;;;;5021622;28;20424;-73
2023/04/29 07:46:25;;;;;;;11.83;10.17;;;14.20;99.90;;;;;;5037850;28;20477;-72
2023/04/29 07:48:53;;;;;;;11.77;9.30;;;14.20;99.90;;;;;;5054232;28;20414;-72
2023/04/29 07:51:20;;;;;;;11.60;9.40;;;14.20;99.90;;;;;;5052192;28;20992;-72
2023/04/29 07:53:46;;;;;;;11.07;9.03;;;14.20;99.90;;;;;;5037434;28;20428;-72
2023/04/29 07:56:13;;;;;;;11.73;9.03;;;14.20;99.90;;;;;;5072071;28;20405;-72
2023/04/29 07:58:42;;;;;;;12.43;9.30;;;14.20;99.90;;;;;;5052609;28;20424;-72
2023/04/29 08:01:09;;;;;;;12.17;9.93;;;14.20;99.90;;;;;;5037462;28;20426;-70
2023/04/29 08:03:38;;;;;;;16.23;10.60;;;14.20;99.90;;;;;;5070687;28;20461;-71
2023/04/29 08:06:05;;;;;;;14.63;10.67;;;14.20;99.90;;;;;;5053144;28;20406;-70
2023/04/29 08:08:32;;;;;;;11.13;9.20;;;14.20;99.90;;;;;;5052282;28;20420;-72
2023/04/29 08:11:03;;;;;;;10.80;8.63;;;14.20;99.90;;;;;;5035917;28;21041;-71
2023/04/29 08:13:33;;;;;;;14.70;9.13;;;14.20;99.90;;;;;;5072348;28;20413;-71
2023/04/29 08:16:02;;;;;;;12.70;10.07;;;14.20;99.90;;;;;;5052183;28;20496;-74
2023/04/29 08:18:30;;;;;;;11.10;9.47;;;14.20;99.90;;;;;;5020193;28;20486;-71
2023/04/29 08:20:58;;;;;;;12.40;9.83;;;14.20;99.90;;;;;;5038373;28;20434;-71
2023/04/29 08:23:24;;;;;;;10.23;8.97;;;14.20;99.90;;;;;;5070276;28;20441;-71
2023/04/29 08:25:51;;;;;;;10.93;8.60;;;14.20;99.90;;;;;;5054231;28;20399;-71
2023/04/29 08:28:19;;;;;;;13.90;9.63;;;14.20;99.90;;;;;;5037511;28;20401;-70
2023/04/29 08:30:45;;;;;;;14.57;10.63;;;14.20;99.90;;;;;;5053036;28;20480;-70
2023/04/29 08:33:11;;;;;;;11.93;10.33;;;14.20;99.90;;;;;;5036510;28;21012;-70
2023/04/29 08:35:41;;;;;;;11.80;9.57;;;14.20;99.90;;;;;;5011845;28;20485;-71
2023/04/29 08:38:09;;;;;;;12.30;10.97;;;14.20;99.90;;;;;;5035993;28;20418;-70
2023/04/29 08:40:46;;;;;;;13.60;10.10;;;14.20;99.90;;;;;;5073415;28;20405;-70
2023/04/29 08:43:16;;;;;;;11.40;9.60;;;14.10;99.90;;;;;;5036995;28;20455;-70
2023/04/29 08:45:43;;;;;;;13.93;10.50;;;14.10;99.90;;;;;;5052151;28;20421;-70
2023/04/29 08:48:09;;;;;;;14.23;10.10;;;14.10;99.90;;;;;;5036455;28;20424;-71
2023/04/29 08:50:43;;;;;;;15.47;11.37;;;14.10;99.90;;;;;;5070969;28;20948;-70
2023/04/29 08:53:12;;;;;;;15.70;11.40;;;14.10;99.90;;;;;;5036325;28;20493;-70
2023/04/29 08:55:47;;;;;;;14.50;11.17;;;14.10;99.90;;;;;;5053522;28;20425;-71
2023/04/29 08:58:16;;;;;;;16.60;12.40;;;14.10;99.90;;;;;;5053537;28;20440;-70
2023/04/29 09:00:43;;;;;;;15.37;12.07;;;14.10;99.90;;;;;;5038325;28;20434;-70
2023/04/29 09:03:24;;;;;;;13.10;11.10;;;14.10;99.90;;;;;;5072559;28;20436;-71
2023/04/29 09:05:55;;;;;;;17.70;13.00;;;14.10;99.90;;;;;;5051982;28;20441;-71
2023/04/29 09:08:25;;;;;;;16.20;12.20;;;14.10;99.90;;;;;;5019338;28;20403;-70
2023/04/29 09:10:54;;;;;;;13.50;11.00;;;14.10;99.90;;;;;;5070428;28;20405;-72
2023/04/29 09:13:28;;;;;;;16.60;11.73;;;14.10;99.90;;;;;;5033412;28;20443;-71
2023/04/29 09:15:54;;;;;;;15.40;11.40;;;14.10;99.90;;;;;;5041026;28;21179;-70
2023/04/29 09:18:49;;;;;;;15.90;12.10;;;14.10;99.90;;;;;;5045299;28;20846;-71
2023/04/29 09:21:19;;;;;;;15.40;13.13;;;14.10;99.90;;;;;;5036249;28;20514;-71
2023/04/29 09:23:50;;;;;;;15.10;12.40;;;14.10;99.90;;;;;;5054179;28;20423;-72
2023/04/29 09:26:16;;;;;;;19.13;12.97;;;14.10;99.90;;;;;;5038200;28;20412;-71
2023/04/29 09:28:46;;;;;;;18.67;14.70;;;14.10;99.90;;;;;;5048578;28;20449;-70
2023/04/29 09:31:12;;;;;;;17.23;13.37;;;14.10;99.90;;;;;;5055184;28;20485;-70
2023/04/29 09:33:58;;;;;;;16.20;12.50;;;14.10;99.90;;;;;;5054736;28;20960;-71
2023/04/29 09:36:41;;;;;;;15.97;13.10;;;14.10;99.90;;;;;;5054954;28;20496;-71
2023/04/29 09:39:11;;;;;;;15.50;12.90;;;14.10;99.90;;;;;;5038089;28;20459;-71
2023/04/29 09:41:52;;;;;;;17.97;13.93;;;14.10;99.90;;;;;;5055532;28;20444;-74
2023/04/29 09:44:24;;;;;;;19.53;15.40;;;14.10;99.90;;;;;;5054728;28;20429;-70
2023/04/29 09:46:58;;;;;;;18.00;14.50;;;14.10;99.90;;;;;;5054053;28;20471;-70
2023/04/29 09:49:29;;;;;;;17.30;12.93;;;14.10;99.90;;;;;;5055200;28;20833;-70
2023/04/29 09:52:00;;;;;;;19.33;13.73;;;14.10;99.90;;;;;;5072624;28;20475;-70
2023/04/29 09:54:32;;;;;;;18.30;13.57;;;14.10;99.90;;;;;;5072761;28;20397;-71
2023/04/29 09:57:01;;;;;;;16.33;14.17;;;14.10;99.90;;;;;;5037955;28;20473;-74
2023/04/29 09:59:29;;;;;;;25.27;14.30;;;14.10;99.90;;;;;;5038494;28;20446;-73
2023/04/29 10:01:56;;;;;;;18.63;14.97;;;14.00;99.90;;;;;;5037837;28;20524;-72
2023/04/29 10:04:25;;;;;;;23.83;17.53;;;14.10;99.90;;;;;;5072083;28;20446;-71
2023/04/29 10:06:53;;;;;;;21.57;16.23;;;14.10;99.90;;;;;;5054095;28;20935;-71
2023/04/29 10:09:22;;;;;;;20.07;16.30;;;14.00;99.90;;;;;;5052559;28;20498;-71
2023/04/29 10:11:50;;;;;;;19.20;15.90;;;14.00;99.90;;;;;;5053260;28;20461;-71
2023/04/29 10:14:21;;;;;;;18.47;16.40;;;14.00;99.90;;;;;;5053608;28;20534;-71
2023/04/29 10:16:48;;;;;;;25.07;16.80;;;14.00;99.90;;;;;;5071817;28;20397;-70
2023/04/29 10:19:23;;;;;;;19.13;15.00;;;14.10;99.90;;;;;;5053693;28;20409;-72
2023/04/29 10:21:49;;;;;;;23.10;16.27;;;14.10;99.90;;;;;;5055506;28;20724;-72
2023/04/29 10:24:20;;;;;;;20.43;15.43;;;14.00;99.90;;;;;;5058666;28;20465;-73
2023/04/29 10:26:50;;;;;;;20.70;16.57;;;14.00;99.90;;;;;;5058838;28;20781;-70
2023/04/29 10:29:17;;;;;;;22.27;16.80;;;14.00;99.90;;;;;;5075480;28;20456;-70
2023/04/29 10:31:45;;;;;;;19.00;15.20;;;14.00;99.90;;;;;;5058422;28;20465;-71
2023/04/29 10:34:16;;;;;;;21.83;16.50;;;14.00;99.90;;;;;;5058763;28;20407;-72
2023/04/29 10:36:43;;;;;;;21.23;16.50;;;14.00;99.90;;;;;;5041856;28;20559;-71
2023/04/29 10:39:20;;;;;;;21.67;15.53;;;14.00;99.90;;;;;;5040267;28;20555;-74
2023/04/29 10:41:50;;;;;;;23.30;16.40;;;14.00;99.90;;;;;;5044042;28;20441;-75
2023/04/29 10:44:16;;;;;;;21.07;15.47;;;14.00;99.90;;;;;;5056509;28;20492;-74
2023/04/29 10:46:42;;;;;;;19.30;14.67;;;14.00;99.90;;;;;;5076620;28;20402;-78
2023/04/29 10:49:14;;;;;;;18.57;15.60;;;14.10;99.90;;;;;;5074718;28;20485;-76
2023/04/29 10:51:42;;;;;;;19.50;15.13;;;14.00;99.90;;;;;;5075555;28;20208;-77
2023/04/29 10:54:24;;;;;;;21.20;15.40;;;14.10;99.90;;;;;;5041394;28;20421;-77
2023/04/29 10:56:52;;;;;;;18.50;15.23;;;14.00;99.90;;;;;;5057809;28;20914;-77
2023/04/29 10:59:28;;;;;;;23.80;15.17;;;14.00;99.90;;;;;;5076079;28;20473;-76
2023/04/29 11:02:00;;;;;;;19.13;16.30;;;14.00;99.90;;;;;;5057881;28;20439;-74
2023/04/29 11:04:27;;;;;;;24.33;16.87;;;14.10;99.90;;;;;;5076980;28;20406;-76
2023/04/29 11:06:55;;;;;;;24.00;16.10;;;14.10;99.90;;;;;;5057349;28;20399;-72
2023/04/29 11:09:34;;;;;;;23.13;16.10;;;14.10;99.90;;;;;;5057659;28;20441;-76
2023/04/29 11:12:12;;;;;;;20.37;14.80;;;14.10;99.90;;;;;;5056992;28;20469;-74
2023/04/29 11:14:48;;;;;;;19.73;14.10;;;14.10;99.90;;;;;;5057223;28;20955;-70
2023/04/29 11:17:19;;;;;;;17.40;14.37;;;14.10;99.90;;;;;;5024436;28;20485;-76
2023/04/29 11:19:49;;;;;;;22.57;15.90;;;14.10;99.90;;;;;;5040595;28;20436;-77
2023/04/29 11:22:21;;;;;;;17.40;15.23;;;14.10;99.90;;;;;;5026835;28;21006;-75
2023/04/29 11:24:52;;;;;;;19.10;15.80;;;14.10;99.90;;;;;;5054507;28;20456;-73
2023/04/29 11:27:21;;;;;;;19.30;15.40;;;14.10;99.90;;;;;;5037809;28;20558;-73
2023/04/29 11:29:49;;;;;;;22.47;16.20;;;14.10;99.90;;;;;;5053373;28;21162;-74
2023/04/29 11:32:24;;;;;;;18.60;16.17;;;14.10;99.90;;;;;;5070566;28;20473;-74
2023/04/29 11:34:55;;;;;;;21.40;15.30;;;14.10;99.90;;;;;;5039031;28;20429;-73
2023/04/29 11:37:23;;;;;;;21.07;16.40;;;14.10;99.90;;;;;;5054430;28;20433;-73
2023/04/29 11:39:51;;;;;;;22.23;16.90;;;14.10;99.90;;;;;;5045053;28;21026;-74
2023/04/29 11:42:22;;;;;;;16.63;14.83;;;14.10;99.90;;;;;;5060320;28;20934;-74
2023/04/29 11:44:56;;;;;;;22.97;16.17;;;14.20;99.90;;;;;;5053980;28;20427;-74
2023/04/29 11:47:30;;;;;;;19.03;16.07;;;14.20;99.90;;;;;;5053976;28;20534;-74
2023/04/29 11:50:07;;;;;;;20.27;16.53;;;14.20;99.90;;;;;;5054213;28;20960;-74
2023/04/29 11:52:36;;;;;;;20.00;14.80;;;14.20;99.90;;;;;;5037190;28;20514;-74
2023/04/29 11:55:07;;;;;;;21.10;16.33;;;14.20;99.90;;;;;;5071563;28;21014;-74
2023/04/29 11:57:33;;;;;;;17.23;15.33;;;14.20;99.90;;;;;;5052253;28;20988;-73
2023/04/29 12:00:04;;;;;;;19.23;15.17;;;14.20;99.90;;;;;;5053355;28;20938;-73
2023/04/29 12:02:34;;;;;;;17.00;15.20;;;14.20;99.90;;;;;;5054581;28;20456;-73
2023/04/29 12:05:06;;;;;;;20.70;14.90;;;14.30;99.90;;;;;;5071928;28;20406;-74
2023/04/29 12:07:34;;;;;;;17.20;14.70;;;14.30;99.90;;;;;;5051328;28;20422;-74
2023/04/29 12:10:02;;;;;;;18.90;16.37;;;14.30;99.90;;;;;;5033662;28;20417;-74
2023/04/29 12:12:33;;;;;;;19.80;15.00;;;14.30;99.90;;;;;;5017196;28;20463;-72
2023/04/29 12:15:02;;;;;;;18.10;14.43;;;14.30;99.90;;;;;;5034226;28;20938;-72
2023/04/29 12:17:28;;;;;;;19.00;15.70;;;14.30;99.90;;;;;;5060689;28;20428;-72
2023/04/29 12:19:55;;;;;;;18.27;15.53;;;14.30;99.90;;;;;;5073464;28;20404;-73
2023/04/29 12:22:21;;;;;;;16.57;14.43;;;14.40;99.90;;;;;;5089136;28;20457;-71
2023/04/29 12:24:53;;;;;;;21.37;15.60;;;14.40;99.90;;;;;;5039328;28;20762;-71
2023/04/29 12:27:22;;;;;;;21.07;15.20;;;14.40;99.90;;;;;;5055647;28;20434;-71
2023/04/29 12:29:51;;;;;;;20.13;16.07;;;14.40;99.90;;;;;;5055651;28;20446;-78
2023/04/29 12:32:24;;;;;;;17.50;14.67;;;14.40;99.90;;;;;;5055642;28;20472;-76
2023/04/29 12:34:52;;;;;;;19.00;16.77;;;14.50;99.90;;;;;;5073599;28;20494;-71
2023/04/29 12:37:21;;;;;;;17.97;15.57;;;14.50;99.90;;;;;;5056095;28;20393;-71
2023/04/29 12:39:49;;;;;;;20.53;17.00;;;14.50;99.90;;;;;;5056146;28;20443;-71
2023/04/29 12:42:17;;;;;;;20.63;16.40;;;14.50;99.90;;;;;;5039057;28;20450;-71
2023/04/29 12:44:49;;;;;;;19.77;15.20;;;14.50;99.90;;;;;;5055805;28;20940;-71